Schomberg (Sloan Valley View Farm Airfield)

METAR CYYZ TAF CYYZ
-1 °C
°C
-
°C
40m
Age
18:39:36
LT
17:39
UTC
0 ft

1,000

2,000

3,000

4,000

5,000

OVC 3,200
VFR
<?= Yii::t('app', 'Wind direction') ?> <?= Yii::t('app', 'of'); ?>
270°
17:23
Sunset
69%
Humidity
Wind shear
Closed/Snow
RWY visual range
RWY condition
Vert. visibility
Min. visibility
CAVOK
Trend
Correction
Special report
30.17 inHg
QNH
METAR CYYZ 281700Z 27012G18KT 15SM OVC032 M01/M06 A3017 RMK SC8 SLP228
Overcast
4 kt
4 kt
12:00
VFR
12 kt
13:00
VFR
12 kt
14:00
VFR
12 kt
15:00
VFR
10 kt
16:00
VFR
10 kt
17:00
VFR
10 kt
18:00
VFR
10 kt
15 mi
Visibility
3,200 ft
Ceiling
12-18 kt
Wind
metar-taf.com/csv8

Metar-Taf.com

Visual decoder

We and third parties follow your internet behavior on our website with cookies. If you continue, we assume you agree with our cookie policy.